Metar Cercanos

 

LEPA - Palma De Mallorc, Spain
Distance from station: ONO 38km
Actualización: 20/11/2018 19:30
Drizzle, Parcialmente nuboso
Drizzle, Parcialmente nuboso
 Viento del SSO
Viento: SSO 26 km/h
Temperatura: 16°C
Rocío: 14°C
Humedad: 88%
Barómetro: 1003 hPa
Resumen: Drizzle
Clouds: Parcialmente nuboso
Visibility: 10 km
Cloud details: Few Clouds 549 m
Parcialmente nuboso 914 m
2018/11/20 18:30 LEPA 201830Z 21014KT 9999 DZ FEW018 SCT030 16/14 Q1003 RERA NOSIG
LEMH - Mahon/Menorca Is, Spain
Distance from station: ENE 105km
Actualización: 20/11/2018 19:30
Muy nuboso
Muy nuboso
 Viento del OSO
Viento: OSO 20 km/h
Temperatura: 16°C
Rocío: 13°C
Humedad: 83%
Barómetro: 1004 hPa
Clouds: Muy nuboso
Visibility: 10 km
Cloud details: Muy nuboso 610 m
2018/11/20 18:30 LEMH 201830Z 24011KT 9999 BKN020 16/13 Q1004
 
LEIB - Ibiza/Es Codola, Spain
Distance from station: OSO 165km
Actualización: 20/11/2018 19:30
Muy nuboso
Muy nuboso
 Viento del SO
Viento: SO 35 km/h
Temperatura: 17°C
Rocío: 13°C
Humedad: 77%
Barómetro: 1003 hPa
Clouds: Muy nuboso
Visibility: 10 km
Cloud details: Parcialmente nuboso 762 m
Muy nuboso 1006 m
2018/11/20 18:30 LEIB 201830Z 22019KT 9999 SCT025 BKN033 17/13 Q1003 NOSIG
LEBL - Barcelona Airpor, Spain
Distance from station: NNO 225km
Actualización: 20/11/2018 19:30
Parcialmente nuboso
Parcialmente nuboso
 Viento del NO
Viento: NO 7 km/h
Temperatura: 13°C
Rocío: 11°C
Humedad: 88%
Barómetro: 1001 hPa
Clouds: Parcialmente nuboso
Visibility: 10 km
Cloud details: Few Clouds 914 m
Parcialmente nuboso 1676 m
2018/11/20 18:30 LEBL 201830Z 32004KT 9999 FEW030CB SCT055 13/11 Q1001 TEMPO 27021G34KT 3000 +TSRA
 
LEVC - Valencia (civ/Mi, Spain
Distance from station: NO 188km
Actualización: 20/11/2018 19:30
Parcialmente nuboso
Parcialmente nuboso
 Viento del SO
Viento: SO 9 km/h
Temperatura: 13°C
Rocío: 10°C
Humedad: 82%
Barómetro: 1003 hPa
Clouds: Parcialmente nuboso
Visibility: 10 km
Cloud details: Few Clouds 762 m
Parcialmente nuboso 1524 m
2018/11/20 18:30 LEVC 201830Z 23005KT 200V260 9999 FEW025 SCT050 13/10 Q1003 NOSIG
LEGE - Gerona/Costa Bra, Spain
Distance from station: N 276km
Actualización: 20/11/2018 19:30
Muy nuboso
Muy nuboso
 Viento del O
Viento: O 4 km/h
Temperatura: 10°C
Rocío: 10°C
Humedad: 100%
Barómetro: 1001 hPa
Clouds: Muy nuboso
Visibility: 8 km
Cloud details: Parcialmente nuboso 305 m
Muy nuboso 914 m
2018/11/20 18:30 LEGE 201830Z 28002KT 8000 SCT010 BKN030 10/10 Q1001
 
LEAL - Alicante/El Alte, Spain
Distance from station: OSO 344km
Actualización: 20/11/2018 19:30
Few Clouds
Few Clouds
 Viento del O
Viento: O 7 km/h
Temperatura: 14°C
Rocío: 11°C
Humedad: 82%
Barómetro: 1004 hPa
Clouds: Few Clouds
Visibility: 10 km
Cloud details: Few Clouds 396 m
2018/11/20 18:30 LEAL 201830Z 27004KT 220V290 9999 FEW013 14/11 Q1004 NOSIG
LEAM - Almeria Airport, Spain
Distance from station: SSO 56km
Actualización: 20/11/2018 19:30
Despejado
Despejado
 Viento del OSO
Viento: OSO 24 km/h
Temperatura: 16°C
Rocío: 8°C
Humedad: 59%
Barómetro: 1007 hPa
Resumen: Despejado
Visibility: greater than 10 km
2018/11/20 18:30 LEAM 201830Z 25013KT 210V280 CAVOK 16/08 Q1007
 
LEZG - Zaragoza (mil/Ci, Spain
Distance from station: NO 431km
Actualización: 20/11/2018 19:30
Lluvia débil, Muy nuboso
Lluvia débil, Muy nuboso
 Viento del varies
Viento: varies 4 km/h
Temperatura: 9°C
Rocío: 8°C
Humedad: 94%
Barómetro: 1002 hPa
Resumen: Lluvia débil
Clouds: Muy nuboso
Visibility: 8 km
Cloud details: Parcialmente nuboso 274 m
Parcialmente nuboso 1524 m
Muy nuboso 1981 m
2018/11/20 18:30 LEZG 201830Z VRB02KT 8000 -RA SCT009 SCT050 BKN065 09/08 Q1002 RERA
LEMD - Madrid/Barajas, Spain
Distance from station: ONO 234km
Actualización: 20/11/2018 19:30
Parcialmente nuboso
Parcialmente nuboso
 Viento del SO
Viento: SO 22 km/h
Temperatura: 10°C
Sensación frio: 7°C
Rocío: 7°C
Humedad: 82%
Barómetro: 1003 hPa
Clouds: Parcialmente nuboso
Visibility: 10 km
Cloud details: Few Clouds 762 m
Parcialmente nuboso 2134 m
2018/11/20 18:30 LEMD 201830Z 23012KT 9999 FEW025 SCT070 10/07 Q1003 R14L/29//95 R14R/29//95 NOSIG
 
LEGR - Granada Airport, Spain
Distance from station: OSO 62km
Actualización: 20/11/2018 19:30
Muy nuboso
Muy nuboso
 Viento del O
Viento: O 7 km/h
Temperatura: 11°C
Rocío: 8°C
Humedad: 82%
Barómetro: 1010 hPa
Clouds: Muy nuboso
Visibility: 10 km
Cloud details: Parcialmente nuboso 1524 m
Parcialmente nuboso 1829 m
Muy nuboso 2134 m
2018/11/20 18:30 LEGR 201830Z 26004KT 200V330 9999 SCT050 SCT060 BKN070 11/08 Q1010
LEMG - Malaga (civ/Mil), Spain
Distance from station: OSO 227km
Actualización: 20/11/2018 19:30
Muy nuboso
Muy nuboso
 Viento del OSO
Viento: OSO 6 km/h
Temperatura: 17°C
Rocío: 9°C
Humedad: 59%
Barómetro: 1009 hPa
Clouds: Muy nuboso
Visibility: 10 km
Cloud details: Few Clouds 914 m
Muy nuboso 1524 m
2018/11/20 18:30 LEMG 201830Z 25003KT 9999 FEW030 BKN050 17/09 Q1009 NOSIG
 
LEZL - Sevilla (civ/Mil, Spain
Distance from station: S 318km
Actualización: 20/11/2018 19:30
Few Clouds
Few Clouds
 Viento del SO
Viento: SO 11 km/h
Temperatura: 15°C
Rocío: 12°C
Humedad: 82%
Barómetro: 1009 hPa
Clouds: Few Clouds
Visibility: 10 km
Cloud details: Few Clouds 1219 m
2018/11/20 18:30 LEZL 201830Z 23006KT 9999 FEW040 15/12 Q1009 NOSIG
LEVT - Vitoria, Spain
Distance from station: NO 226km
Actualización: 20/11/2018 19:30
Lluvia débil, Muy nuboso
Lluvia débil, Muy nuboso
 Viento del calm
Viento: Calma
Temperatura: 3°C
Rocío: 2°C
Humedad: 93%
Barómetro: 1003 hPa
Resumen: Lluvia débil
Clouds: Muy nuboso
Visibility: 10 km
Cloud details: Few Clouds 427 m
Parcialmente nuboso 762 m
Muy nuboso 1372 m
2018/11/20 18:30 LEVT 201830Z 00000KT 9999 -RA FEW014 SCT025 BKN045 03/02 Q1003
 
LEBB - Bilbao/Sondica, Spain
Distance from station: NNO 235km
Actualización: 20/11/2018 19:30
Parcialmente nuboso
Parcialmente nuboso
 Viento del ESE
Viento: ESE 9 km/h
Temperatura: 7°C
Sensación frio: 6°C
Rocío: 4°C
Humedad: 81%
Barómetro: 1004 hPa
Clouds: Parcialmente nuboso
Visibility: 10 km
Cloud details: Few Clouds 671 m
Parcialmente nuboso 1219 m
2018/11/20 18:30 LEBB 201830Z 11005KT 080V140 9999 FEW022 SCT040 07/04 Q1004 NOSIG
LESO - San Sebastian/Fu, Spain
Distance from station: N 231km
Actualización: 20/11/2018 19:30
Muy nuboso
Muy nuboso
 Viento del SE
Viento: SE 7 km/h
Temperatura: 6°C
Sensación frio: 4°C
Rocío: 4°C
Humedad: 87%
Barómetro: 1004 hPa
Clouds: Muy nuboso
Visibility: 10 km
Cloud details: Few Clouds 549 m
Parcialmente nuboso 1524 m
Muy nuboso 2103 m
2018/11/20 18:30 LESO 201830Z 13004KT 9999 FEW018 SCT050 BKN069 06/04 Q1004
 
LEVD - Valladolid(Mil/C, Spain
Distance from station: ONO 239km
Actualización: 20/11/2018 19:30
Muy nuboso
Muy nuboso
 Viento del SO
Viento: SO 20 km/h
Temperatura: 7°C
Sensación frio: 4°C
Rocío: 5°C
Humedad: 87%
Barómetro: 1001 hPa
Clouds: Muy nuboso
Visibility: 10 km
Cloud details: Parcialmente nuboso 549 m
Parcialmente nuboso 732 m
Muy nuboso 1341 m
2018/11/20 18:30 LEVD 201830Z 23011KT 200V260 9999 SCT018 SCT024 BKN044 07/05 Q1001
LESA - Salamanca (civ/M, Spain
Distance from station: ONO 349km
Actualización: 20/11/2018 19:30
Muy nuboso
Muy nuboso
 Viento del OSO
Viento: OSO 22 km/h
Temperatura: 7°C
Sensación frio: 4°C
Rocío: 6°C
Humedad: 93%
Barómetro: 1002 hPa
Clouds: Muy nuboso
Visibility: 8 km
Cloud details: Parcialmente nuboso 579 m
Muy nuboso 853 m
Muy nuboso 1433 m
2018/11/20 18:30 LESA 201830Z AUTO 25012KT 8000 SCT019/// BKN028/// BKN047/// 07/06 Q1002
 
LEXJ - Santander/Paraya, Spain
Distance from station: NNO 247km
Actualización: 20/11/2018 19:30
Few Clouds
Few Clouds
 Viento del ESE
Viento: ESE 6 km/h
Temperatura: 8°C
Rocío: 5°C
Humedad: 82%
Barómetro: 1003 hPa
Clouds: Few Clouds
Visibility: 10 km
Cloud details: Few Clouds 2134 m
2018/11/20 18:30 LEXJ 201830Z 11003KT 9999 FEW070 08/05 Q1003
LEAS - Asturias/Aviles, Spain
Distance from station: NO 214km
Actualización: 20/11/2018 19:30
Muy nuboso
Muy nuboso
 Viento del calm
Viento: Calma
Temperatura: 8°C
Rocío: 7°C
Humedad: 93%
Barómetro: 1002 hPa
Clouds: Muy nuboso
Visibility: 10 km
Cloud details: Few Clouds 610 m
Muy nuboso 1646 m
Muy nuboso 2438 m
2018/11/20 18:30 LEAS 201830Z 00000KT 9999 FEW020 BKN054 BKN080 08/07 Q1002 NOSIG
 
LECO - La Coruna/Alvedr, Spain
Distance from station: ONO 222km
Actualización: 20/11/2018 19:30
Parcialmente nuboso
Parcialmente nuboso
 Viento del N
Viento: N 6 km/h
Temperatura: 9°C
Rocío: 6°C
Humedad: 82%
Barómetro: 1002 hPa
Clouds: Parcialmente nuboso
Visibility: 10 km
Cloud details: Few Clouds 671 m
Parcialmente nuboso 1219 m
2018/11/20 18:30 LECO 201830Z 01003KT 320V050 9999 FEW022 SCT040 09/06 Q1002 NOSIG
LEVX - Vigo/Peinador, Spain
Distance from station: O 214km
Actualización: 20/11/2018 19:30
Parcialmente nuboso
Parcialmente nuboso
 Viento del calm
Viento: Calma
Temperatura: 10°C
Rocío: 9°C
Humedad: 94%
Barómetro: 1002 hPa
Clouds: Parcialmente nuboso
Visibility: 10 km
Cloud details: Parcialmente nuboso 457 m
2018/11/20 18:30 LEVX 201830Z 00000KT 9999 SCT015 10/09 Q1002 NOSIG